sensor_id;sensor_type;location;lat;lon;timestamp;pressure;altitude;pressure_sealevel;temperature;humidity
71109;BME280;59614;51.012;-1.648;2023-02-28T00:01:31;102369.16;;;2.54;80.23
71109;BME280;59614;51.012;-1.648;2023-02-28T00:03:57;102371.38;;;2.46;79.93
71109;BME280;59614;51.012;-1.648;2023-02-28T00:06:23;102374.97;;;2.49;80.24
71109;BME280;59614;51.012;-1.648;2023-02-28T00:08:49;102376.00;;;2.52;79.87
71109;BME280;59614;51.012;-1.648;2023-02-28T00:11:15;102379.13;;;2.45;80.15
71109;BME280;59614;51.012;-1.648;2023-02-28T00:13:44;102371.44;;;2.48;79.79
71109;BME280;59614;51.012;-1.648;2023-02-28T00:16:14;102374.16;;;2.50;79.52
71109;BME280;59614;51.012;-1.648;2023-02-28T00:18:40;102376.00;;;2.52;79.25
71109;BME280;59614;51.012;-1.648;2023-02-28T00:21:07;102373.00;;;2.44;79.43
71109;BME280;59614;51.012;-1.648;2023-02-28T00:23:33;102376.59;;;2.46;79.17
71109;BME280;59614;51.012;-1.648;2023-02-28T00:25:58;102374.81;;;2.45;79.75
71109;BME280;59614;51.012;-1.648;2023-02-28T00:28:24;102374.59;;;2.41;79.61
71109;BME280;59614;51.012;-1.648;2023-02-28T00:30:49;102378.97;;;2.42;79.71
71109;BME280;59614;51.012;-1.648;2023-02-28T00:33:15;102373.47;;;2.36;79.98
71109;BME280;59614;51.012;-1.648;2023-02-28T00:35:40;102367.19;;;2.32;80.32
71109;BME280;59614;51.012;-1.648;2023-02-28T00:38:06;102382.63;;;2.27;80.24
71109;BME280;59614;51.012;-1.648;2023-02-28T00:40:31;102376.75;;;2.31;80.62
71109;BME280;59614;51.012;-1.648;2023-02-28T00:42:57;102376.81;;;2.33;80.31
71109;BME280;59614;51.012;-1.648;2023-02-28T00:45:22;102383.44;;;2.26;81.00
71109;BME280;59614;51.012;-1.648;2023-02-28T00:47:48;102378.38;;;2.29;80.82
71109;BME280;59614;51.012;-1.648;2023-02-28T00:50:19;102377.34;;;2.26;80.79
71109;BME280;59614;51.012;-1.648;2023-02-28T00:52:45;102385.09;;;2.24;81.32
71109;BME280;59614;51.012;-1.648;2023-02-28T00:55:11;102383.31;;;2.23;81.43
71109;BME280;59614;51.012;-1.648;2023-02-28T00:57:37;102383.97;;;2.19;81.35
71109;BME280;59614;51.012;-1.648;2023-02-28T01:00:03;102389.81;;;2.15;81.58
71109;BME280;59614;51.012;-1.648;2023-02-28T01:02:28;102387.97;;;2.12;82.33
71109;BME280;59614;51.012;-1.648;2023-02-28T01:04:54;102386.09;;;2.10;82.55
71109;BME280;59614;51.012;-1.648;2023-02-28T01:07:19;102386.91;;;2.09;82.75
71109;BME280;59614;51.012;-1.648;2023-02-28T01:09:45;102389.38;;;2.06;82.90
71109;BME280;59614;51.012;-1.648;2023-02-28T01:12:10;102396.19;;;2.04;82.73
71109;BME280;59614;51.012;-1.648;2023-02-28T01:14:36;102401.13;;;1.97;83.09
71109;BME280;59614;51.012;-1.648;2023-02-28T01:17:02;102400.47;;;2.02;83.11
71109;BME280;59614;51.012;-1.648;2023-02-28T01:19:27;102402.84;;;1.97;83.24
71109;BME280;59614;51.012;-1.648;2023-02-28T01:21:53;102398.56;;;1.99;83.35
71109;BME280;59614;51.012;-1.648;2023-02-28T01:24:18;102408.94;;;1.97;83.32
71109;BME280;59614;51.012;-1.648;2023-02-28T01:26:44;102406.16;;;1.94;83.53
71109;BME280;59614;51.012;-1.648;2023-02-28T01:29:09;102406.16;;;1.94;83.59
71109;BME280;59614;51.012;-1.648;2023-02-28T01:31:35;102407.66;;;1.89;83.86
71109;BME280;59614;51.012;-1.648;2023-02-28T01:34:00;102413.50;;;1.85;84.21
71109;BME280;59614;51.012;-1.648;2023-02-28T01:36:26;102417.59;;;1.80;84.52
71109;BME280;59614;51.012;-1.648;2023-02-28T01:38:52;102397.66;;;1.80;84.47
71109;BME280;59614;51.012;-1.648;2023-02-28T01:41:21;102400.31;;;1.82;84.71
71109;BME280;59614;51.012;-1.648;2023-02-28T01:46:13;102398.16;;;1.73;85.01
71109;BME280;59614;51.012;-1.648;2023-02-28T01:54:00;102401.97;;;1.63;85.81
71109;BME280;59614;51.012;-1.648;2023-02-28T01:56:29;102388.00;;;1.61;86.32
71109;BME280;59614;51.012;-1.648;2023-02-28T01:58:55;102391.25;;;1.57;86.45
71109;BME280;59614;51.012;-1.648;2023-02-28T02:01:22;102383.13;;;1.51;86.56
71109;BME280;59614;51.012;-1.648;2023-02-28T02:03:53;102393.53;;;1.51;86.91
71109;BME280;59614;51.012;-1.648;2023-02-28T02:06:23;102391.00;;;1.52;87.42
71109;BME280;59614;51.012;-1.648;2023-02-28T02:08:50;102386.53;;;1.50;87.57
71109;BME280;59614;51.012;-1.648;2023-02-28T02:11:18;102387.09;;;1.44;88.25
71109;BME280;59614;51.012;-1.648;2023-02-28T02:19:08;102387.03;;;1.43;89.02
71109;BME280;59614;51.012;-1.648;2023-02-28T02:29:48;102388.81;;;1.44;90.07
71109;BME280;59614;51.012;-1.648;2023-02-28T02:35:25;102379.81;;;1.37;91.32
71109;BME280;59614;51.012;-1.648;2023-02-28T02:39:04;102384.25;;;1.39;91.13
71109;BME280;59614;51.012;-1.648;2023-02-28T02:41:08;102389.41;;;1.38;91.56
71109;BME280;59614;51.012;-1.648;2023-02-28T02:44:20;102385.75;;;1.34;91.86
71109;BME280;59614;51.012;-1.648;2023-02-28T02:46:51;102390.78;;;1.31;92.54
71109;BME280;59614;51.012;-1.648;2023-02-28T02:49:24;102381.41;;;1.35;92.83
71109;BME280;59614;51.012;-1.648;2023-02-28T02:51:52;102370.28;;;1.37;93.18
71109;BME280;59614;51.012;-1.648;2023-02-28T02:54:25;102380.84;;;1.41;92.96
71109;BME280;59614;51.012;-1.648;2023-02-28T02:56:55;102376.38;;;1.38;93.45
71109;BME280;59614;51.012;-1.648;2023-02-28T02:59:23;102376.28;;;1.36;93.97
71109;BME280;59614;51.012;-1.648;2023-02-28T03:01:52;102381.50;;;1.36;94.17
71109;BME280;59614;51.012;-1.648;2023-02-28T03:04:21;102381.66;;;1.39;94.40
71109;BME280;59614;51.012;-1.648;2023-02-28T03:06:48;102375.47;;;1.37;94.50
71109;BME280;59614;51.012;-1.648;2023-02-28T03:09:15;102382.81;;;1.45;94.42
71109;BME280;59614;51.012;-1.648;2023-02-28T03:11:41;102380.84;;;1.41;95.07
71109;BME280;59614;51.012;-1.648;2023-02-28T03:22:41;102381.72;;;1.41;95.79
71109;BME280;59614;51.012;-1.648;2023-02-28T03:25:27;102387.50;;;1.35;95.94
71109;BME280;59614;51.012;-1.648;2023-02-28T03:28:05;102391.09;;;1.37;95.91
71109;BME280;59614;51.012;-1.648;2023-02-28T03:30:47;102391.81;;;1.35;96.33
71109;BME280;59614;51.012;-1.648;2023-02-28T03:33:21;102405.41;;;1.29;96.93
71109;BME280;59614;51.012;-1.648;2023-02-28T03:35:59;102398.81;;;1.36;96.88
71109;BME280;59614;51.012;-1.648;2023-02-28T03:38:40;102396.97;;;1.33;97.01
71109;BME280;59614;51.012;-1.648;2023-02-28T03:41:17;102393.69;;;1.37;96.80
71109;BME280;59614;51.012;-1.648;2023-02-28T03:44:10;102392.56;;;1.32;97.43
71109;BME280;59614;51.012;-1.648;2023-02-28T03:46:44;102390.78;;;1.31;97.66
71109;BME280;59614;51.012;-1.648;2023-02-28T03:49:20;102394.19;;;1.30;98.27
71109;BME280;59614;51.012;-1.648;2023-02-28T03:51:49;102395.31;;;1.35;98.62
71109;BME280;59614;51.012;-1.648;2023-02-28T03:54:22;102396.47;;;1.41;98.60
71109;BME280;59614;51.012;-1.648;2023-02-28T03:56:52;102399.69;;;1.36;98.48
71109;BME280;59614;51.012;-1.648;2023-02-28T03:59:26;102391.75;;;1.33;98.36
71109;BME280;59614;51.012;-1.648;2023-02-28T04:01:53;102393.69;;;1.37;98.47
71109;BME280;59614;51.012;-1.648;2023-02-28T04:04:20;102387.50;;;1.35;99.16
71109;BME280;59614;51.012;-1.648;2023-02-28T04:06:49;102381.66;;;1.39;99.15
71109;BME280;59614;51.012;-1.648;2023-02-28T04:09:15;102372.06;;;1.38;98.78
71109;BME280;59614;51.012;-1.648;2023-02-28T04:11:48;102378.75;;;1.33;99.38
71109;BME280;59614;51.012;-1.648;2023-02-28T04:14:17;102384.25;;;1.39;99.17
71109;BME280;59614;51.012;-1.648;2023-02-28T04:16:43;102372.97;;;1.39;98.94
71109;BME280;59614;51.012;-1.648;2023-02-28T04:19:10;102375.47;;;1.37;99.09
71109;BME280;59614;51.012;-1.648;2023-02-28T04:21:38;102378.88;;;1.36;99.01
71109;BME280;59614;51.012;-1.648;2023-02-28T04:24:05;102375.34;;;1.34;99.06
71109;BME280;59614;51.012;-1.648;2023-02-28T04:26:31;102388.00;;;1.28;99.35
71109;BME280;59614;51.012;-1.648;2023-02-28T04:28:58;102386.88;;;1.23;99.89
71109;BME280;59614;51.012;-1.648;2023-02-28T04:31:24;102386.88;;;1.23;100.00
71109;BME280;59614;51.012;-1.648;2023-02-28T04:33:49;102385.22;;;1.25;100.00
71109;BME280;59614;51.012;-1.648;2023-02-28T04:36:14;102385.97;;;1.22;100.00
71109;BME280;59614;51.012;-1.648;2023-02-28T04:38:43;102392.97;;;1.23;100.00
71109;BME280;59614;51.012;-1.648;2023-02-28T04:41:08;102387.03;;;1.26;100.00
71109;BME280;59614;51.012;-1.648;2023-02-28T04:43:34;102387.19;;;1.29;100.00
71109;BME280;59614;51.012;-1.648;2023-02-28T04:46:01;102384.41;;;1.26;99.86
71109;BME280;59614;51.012;-1.648;2023-02-28T04:48:28;102387.03;;;1.26;99.52
71109;BME280;59614;51.012;-1.648;2023-02-28T04:50:54;102398.16;;;1.23;99.90
71109;BME280;59614;51.012;-1.648;2023-02-28T04:53:20;102399.97;;;1.25;99.80
71109;BME280;59614;51.012;-1.648;2023-02-28T04:55:46;102402.97;;;1.32;99.98
71109;BME280;59614;51.012;-1.648;2023-02-28T04:58:15;102406.69;;;1.37;99.64
71109;BME280;59614;51.012;-1.648;2023-02-28T05:00:41;102415.47;;;1.39;99.31
71109;BME280;59614;51.012;-1.648;2023-02-28T05:03:10;102418.72;;;1.35;99.00
71109;BME280;59614;51.012;-1.648;2023-02-28T05:05:35;102422.97;;;1.33;99.32
71109;BME280;59614;51.012;-1.648;2023-02-28T05:08:01;102421.19;;;1.32;99.72
71109;BME280;59614;51.012;-1.648;2023-02-28T05:10:26;102427.19;;;1.31;99.03
71109;BME280;59614;51.012;-1.648;2023-02-28T05:12:51;102432.28;;;1.30;99.12
71109;BME280;59614;51.012;-1.648;2023-02-28T05:15:17;102426.22;;;1.29;99.63
71109;BME280;59614;51.012;-1.648;2023-02-28T05:17:43;102429.06;;;1.34;99.51
71109;BME280;59614;51.012;-1.648;2023-02-28T05:20:09;102432.41;;;1.31;99.50
71109;BME280;59614;51.012;-1.648;2023-02-28T05:22:36;102426.38;;;1.32;99.89
71109;BME280;59614;51.012;-1.648;2023-02-28T05:25:03;102425.22;;;1.27;100.00
71109;BME280;59614;51.012;-1.648;2023-02-28T05:27:30;102436.69;;;1.31;100.00
71109;BME280;59614;51.012;-1.648;2023-02-28T05:29:55;102429.69;;;1.30;100.00
71109;BME280;59614;51.012;-1.648;2023-02-28T05:32:21;102434.66;;;1.25;100.00
71109;BME280;59614;51.012;-1.648;2023-02-28T05:34:46;102435.97;;;1.33;100.00
71109;BME280;59614;51.012;-1.648;2023-02-28T05:37:13;102449.06;;;1.35;100.00
71109;BME280;59614;51.012;-1.648;2023-02-28T05:39:39;102439.72;;;1.38;99.96
71109;BME280;59614;51.012;-1.648;2023-02-28T05:42:05;102436.13;;;1.36;99.86
71109;BME280;59614;51.012;-1.648;2023-02-28T05:44:30;102434.69;;;1.42;100.00
71109;BME280;59614;51.012;-1.648;2023-02-28T05:46:56;102422.56;;;1.42;99.74
71109;BME280;59614;51.012;-1.648;2023-02-28T05:49:21;102430.28;;;1.41;99.57
71109;BME280;59614;51.012;-1.648;2023-02-28T05:51:47;102426.13;;;1.44;99.18
71109;BME280;59614;51.012;-1.648;2023-02-28T05:54:12;102421.84;;;1.45;99.28
71109;BME280;59614;51.012;-1.648;2023-02-28T05:56:38;102418.09;;;1.39;98.91
71109;BME280;59614;51.012;-1.648;2023-02-28T05:59:09;102421.84;;;1.45;99.10
71109;BME280;59614;51.012;-1.648;2023-02-28T06:01:40;102431.59;;;1.49;98.72
71109;BME280;59614;51.012;-1.648;2023-02-28T06:04:08;102438.59;;;1.50;98.10
71109;BME280;59614;51.012;-1.648;2023-02-28T06:06:34;102426.25;;;1.46;98.11
71109;BME280;59614;51.012;-1.648;2023-02-28T06:09:01;102434.50;;;1.38;98.30
71109;BME280;59614;51.012;-1.648;2023-02-28T06:11:27;102431.44;;;1.46;98.09
71109;BME280;59614;51.012;-1.648;2023-02-28T06:13:54;102444.47;;;1.46;98.08
71109;BME280;59614;51.012;-1.648;2023-02-28T06:16:21;102432.41;;;1.48;98.15
71109;BME280;59614;51.012;-1.648;2023-02-28T06:18:46;102434.13;;;1.47;97.67
71109;BME280;59614;51.012;-1.648;2023-02-28T06:21:12;102439.16;;;1.44;98.31
71109;BME280;59614;51.012;-1.648;2023-02-28T06:23:38;102440.75;;;1.42;97.84
71109;BME280;59614;51.012;-1.648;2023-02-28T06:26:03;102442.72;;;1.46;97.75
71109;BME280;59614;51.012;-1.648;2023-02-28T06:28:29;102449.72;;;1.47;97.52
71109;BME280;59614;51.012;-1.648;2023-02-28T06:30:54;102433.19;;;1.47;97.85
71109;BME280;59614;51.012;-1.648;2023-02-28T06:33:20;102439.25;;;1.46;97.82
71109;BME280;59614;51.012;-1.648;2023-02-28T06:35:52;102448.56;;;1.42;97.91
71109;BME280;59614;51.012;-1.648;2023-02-28T06:38:18;102448.50;;;1.41;97.84
71109;BME280;59614;51.012;-1.648;2023-02-28T06:40:44;102449.56;;;1.44;98.00
71109;BME280;59614;51.012;-1.648;2023-02-28T06:43:10;102453.63;;;1.39;97.93
71109;BME280;59614;51.012;-1.648;2023-02-28T06:45:41;102443.13;;;1.37;98.64
71109;BME280;59614;51.012;-1.648;2023-02-28T06:48:07;102458.03;;;1.40;98.33
71109;BME280;59614;51.012;-1.648;2023-02-28T06:50:32;102458.84;;;1.39;98.74
71109;BME280;59614;51.012;-1.648;2023-02-28T06:52:58;102465.84;;;1.40;98.45
71109;BME280;59614;51.012;-1.648;2023-02-28T06:55:24;102455.50;;;1.42;98.62
71109;BME280;59614;51.012;-1.648;2023-02-28T06:57:49;102467.88;;;1.46;98.78
71109;BME280;59614;51.012;-1.648;2023-02-28T07:00:16;102460.22;;;1.49;98.79
71109;BME280;59614;51.012;-1.648;2023-02-28T07:02:41;102465.34;;;1.47;98.83
71109;BME280;59614;51.012;-1.648;2023-02-28T07:05:07;102464.72;;;1.51;99.07
71109;BME280;59614;51.012;-1.648;2023-02-28T07:07:33;102463.28;;;1.58;98.47
71109;BME280;59614;51.012;-1.648;2023-02-28T07:09:59;102461.59;;;1.59;97.99
71109;BME280;59614;51.012;-1.648;2023-02-28T07:12:25;102470.63;;;1.65;97.36
71109;BME280;59614;51.012;-1.648;2023-02-28T07:14:50;102476.72;;;1.66;97.25
71109;BME280;59614;51.012;-1.648;2023-02-28T07:17:15;102469.16;;;1.70;96.80
71109;BME280;59614;51.012;-1.648;2023-02-28T07:19:41;102472.69;;;1.71;96.64
71109;BME280;59614;51.012;-1.648;2023-02-28T07:22:07;102483.81;;;1.85;96.11
71109;BME280;59614;51.012;-1.648;2023-02-28T07:24:33;102478.94;;;1.91;95.75
71109;BME280;59614;51.012;-1.648;2023-02-28T07:26:58;102481.91;;;1.99;95.05
71109;BME280;59614;51.012;-1.648;2023-02-28T07:29:24;102474.84;;;2.13;94.16
71109;BME280;59614;51.012;-1.648;2023-02-28T07:31:50;102471.44;;;2.32;93.12
71109;BME280;59614;51.012;-1.648;2023-02-28T07:34:18;102475.13;;;2.36;92.87
71109;BME280;59614;51.012;-1.648;2023-02-28T07:36:44;102478.03;;;2.42;91.93
71109;BME280;59614;51.012;-1.648;2023-02-28T07:39:09;102476.69;;;2.50;91.44
71109;BME280;59614;51.012;-1.648;2023-02-28T07:41:35;102472.06;;;2.62;90.42
71109;BME280;59614;51.012;-1.648;2023-02-28T07:44:04;102480.44;;;2.55;90.63
71109;BME280;59614;51.012;-1.648;2023-02-28T07:46:30;102482.31;;;2.76;90.03
71109;BME280;59614;51.012;-1.648;2023-02-28T07:49:00;102487.06;;;2.85;89.20
71109;BME280;59614;51.012;-1.648;2023-02-28T07:51:26;102472.38;;;3.05;88.02
71109;BME280;59614;51.012;-1.648;2023-02-28T07:53:51;102481.09;;;3.23;87.07
71109;BME280;59614;51.012;-1.648;2023-02-28T07:56:17;102483.53;;;3.20;87.19
71109;BME280;59614;51.012;-1.648;2023-02-28T07:58:42;102472.75;;;3.32;87.21
71109;BME280;59614;51.012;-1.648;2023-02-28T08:01:09;102478.66;;;3.46;86.65
71109;BME280;59614;51.012;-1.648;2023-02-28T08:03:36;102484.28;;;3.55;86.37
71109;BME280;59614;51.012;-1.648;2023-02-28T08:06:03;102474.41;;;3.48;85.45
71109;BME280;59614;51.012;-1.648;2023-02-28T08:08:29;102480.16;;;3.61;85.51
71109;BME280;59614;51.012;-1.648;2023-02-28T08:11:02;102492.53;;;3.65;85.22
71109;BME280;59614;51.012;-1.648;2023-02-28T08:13:29;102486.91;;;3.75;84.84
71109;BME280;59614;51.012;-1.648;2023-02-28T08:15:55;102482.38;;;3.91;84.15
71109;BME280;59614;51.012;-1.648;2023-02-28T08:18:21;102483.97;;;4.08;83.93
71109;BME280;59614;51.012;-1.648;2023-02-28T08:20:47;102486.50;;;4.05;83.68
71109;BME280;59614;51.012;-1.648;2023-02-28T08:23:13;102489.34;;;4.11;83.64
71109;BME280;59614;51.012;-1.648;2023-02-28T08:25:38;102482.72;;;4.20;83.74
71109;BME280;59614;51.012;-1.648;2023-02-28T08:28:04;102482.47;;;4.35;83.09
71109;BME280;59614;51.012;-1.648;2023-02-28T08:30:29;102485.63;;;4.26;82.86
71109;BME280;59614;51.012;-1.648;2023-02-28T08:32:55;102479.69;;;4.30;83.13
71109;BME280;59614;51.012;-1.648;2023-02-28T08:35:21;102485.94;;;4.55;82.69
71109;BME280;59614;51.012;-1.648;2023-02-28T08:37:50;102484.78;;;4.48;82.12
71109;BME280;59614;51.012;-1.648;2023-02-28T08:40:16;102491.69;;;4.67;81.85
71109;BME280;59614;51.012;-1.648;2023-02-28T08:42:47;102483.97;;;4.70;81.52
71109;BME280;59614;51.012;-1.648;2023-02-28T08:45:13;102485.44;;;4.42;82.04
71109;BME280;59614;51.012;-1.648;2023-02-28T08:47:39;102479.31;;;4.63;81.49
71109;BME280;59614;51.012;-1.648;2023-02-28T08:50:05;102487.78;;;4.78;81.28
71109;BME280;59614;51.012;-1.648;2023-02-28T08:52:31;102484.22;;;4.76;81.21
71109;BME280;59614;51.012;-1.648;2023-02-28T08:54:57;102482.13;;;5.12;80.33
71109;BME280;59614;51.012;-1.648;2023-02-28T08:57:22;102471.91;;;4.95;80.17
71109;BME280;59614;51.012;-1.648;2023-02-28T08:59:48;102476.28;;;5.19;80.17
71109;BME280;59614;51.012;-1.648;2023-02-28T09:02:14;102483.31;;;5.20;78.79
71109;BME280;59614;51.012;-1.648;2023-02-28T09:04:40;102472.81;;;5.43;78.25
71109;BME280;59614;51.012;-1.648;2023-02-28T09:07:05;102476.34;;;5.43;78.15
71109;BME280;59614;51.012;-1.648;2023-02-28T09:09:31;102484.03;;;5.38;78.29
71109;BME280;59614;51.012;-1.648;2023-02-28T09:11:56;102477.22;;;5.44;77.85
71109;BME280;59614;51.012;-1.648;2023-02-28T09:14:22;102470.25;;;5.67;77.33
71109;BME280;59614;51.012;-1.648;2023-02-28T09:16:48;102479.34;;;5.54;77.42
71109;BME280;59614;51.012;-1.648;2023-02-28T09:19:13;102480.78;;;5.68;77.06
71109;BME280;59614;51.012;-1.648;2023-02-28T09:21:39;102480.50;;;5.38;77.79
71109;BME280;59614;51.012;-1.648;2023-02-28T09:24:05;102472.31;;;5.53;77.44
71109;BME280;59614;51.012;-1.648;2023-02-28T09:26:30;102480.06;;;5.72;77.27
71109;BME280;59614;51.012;-1.648;2023-02-28T09:28:56;102471.94;;;5.66;77.29
71109;BME280;59614;51.012;-1.648;2023-02-28T09:31:26;102468.72;;;5.98;76.19
71109;BME280;59614;51.012;-1.648;2023-02-28T09:33:53;102471.13;;;5.67;76.91
71109;BME280;59614;51.012;-1.648;2023-02-28T09:36:19;102476.75;;;5.31;78.42
71109;BME280;59614;51.012;-1.648;2023-02-28T09:38:45;102488.91;;;5.29;78.52
71109;BME280;59614;51.012;-1.648;2023-02-28T09:41:20;102478.53;;;5.32;78.88
71109;BME280;59614;51.012;-1.648;2023-02-28T09:43:54;102471.13;;;5.67;78.28
71109;BME280;59614;51.012;-1.648;2023-02-28T09:49:02;102480.81;;;5.46;79.33
71109;BME280;59614;51.012;-1.648;2023-02-28T09:54:20;102489.03;;;5.32;78.52
71109;BME280;59614;51.012;-1.648;2023-02-28T09:56:53;102496.88;;;5.09;79.05
71109;BME280;59614;51.012;-1.648;2023-02-28T09:59:42;102487.31;;;5.33;78.67
71109;BME280;59614;51.012;-1.648;2023-02-28T10:10:29;102484.06;;;5.87;76.99
71109;BME280;59614;51.012;-1.648;2023-02-28T10:12:58;102489.56;;;5.95;77.10
71109;BME280;59614;51.012;-1.648;2023-02-28T10:15:27;102483.38;;;5.93;76.98
71109;BME280;59614;51.012;-1.648;2023-02-28T10:17:58;102473.03;;;5.71;76.51
71109;BME280;59614;51.012;-1.648;2023-02-28T10:20:25;102479.94;;;5.94;76.63
71109;BME280;59614;51.012;-1.648;2023-02-28T10:23:27;102482.63;;;5.95;75.96
71109;BME280;59614;51.012;-1.648;2023-02-28T10:26:03;102464.28;;;6.45;75.32
71109;BME280;59614;51.012;-1.648;2023-02-28T10:28:30;102466.50;;;6.60;74.05
71109;BME280;59614;51.012;-1.648;2023-02-28T10:30:56;102461.28;;;6.34;75.16
71109;BME280;59614;51.012;-1.648;2023-02-28T10:33:30;102464.03;;;6.39;75.11
71109;BME280;59614;51.012;-1.648;2023-02-28T10:35:57;102456.03;;;6.34;74.00
71109;BME280;59614;51.012;-1.648;2023-02-28T10:38:28;102461.31;;;5.86;75.98
71109;BME280;59614;51.012;-1.648;2023-02-28T10:43:29;102446.13;;;6.00;76.71
71109;BME280;59614;51.012;-1.648;2023-02-28T10:45:59;102444.34;;;6.25;75.91
71109;BME280;59614;51.012;-1.648;2023-02-28T10:51:07;102440.69;;;5.95;75.82
71109;BME280;59614;51.012;-1.648;2023-02-28T10:53:54;102446.00;;;5.72;76.53
71109;BME280;59614;51.012;-1.648;2023-02-28T10:56:22;102435.13;;;6.10;76.88
71109;BME280;59614;51.012;-1.648;2023-02-28T10:59:24;102423.38;;;6.25;75.74
71109;BME280;59614;51.012;-1.648;2023-02-28T11:01:51;102424.41;;;6.85;75.10
71109;BME280;59614;51.012;-1.648;2023-02-28T11:09:36;102435.00;;;6.07;76.46
71109;BME280;59614;51.012;-1.648;2023-02-28T11:12:06;102433.09;;;6.03;76.56
71109;BME280;59614;51.012;-1.648;2023-02-28T11:14:49;102439.44;;;6.10;77.23
71109;BME280;59614;51.012;-1.648;2023-02-28T11:17:27;102433.88;;;6.00;76.74
71109;BME280;59614;51.012;-1.648;2023-02-28T11:19:54;102447.94;;;6.02;77.51
71109;BME280;59614;51.012;-1.648;2023-02-28T11:22:27;102443.25;;;6.18;76.42
71109;BME280;59614;51.012;-1.648;2023-02-28T11:24:59;102439.38;;;6.07;76.43
71109;BME280;59614;51.012;-1.648;2023-02-28T11:29:54;102434.13;;;6.07;75.86
71109;BME280;59614;51.012;-1.648;2023-02-28T11:32:22;102433.66;;;5.94;75.78
71109;BME280;59614;51.012;-1.648;2023-02-28T11:37:35;102431.94;;;6.19;75.40
71109;BME280;59614;51.012;-1.648;2023-02-28T11:40:01;102420.91;;;6.29;74.82
71109;BME280;59614;51.012;-1.648;2023-02-28T11:48:17;102407.00;;;6.59;74.15
71109;BME280;59614;51.012;-1.648;2023-02-28T11:53:19;102399.31;;;6.65;73.42
71109;BME280;59614;51.012;-1.648;2023-02-28T11:56:06;102409.06;;;6.99;72.88
71109;BME280;59614;51.012;-1.648;2023-02-28T11:58:42;102394.97;;;6.95;73.55
71109;BME280;59614;51.012;-1.648;2023-02-28T12:01:38;102393.03;;;6.89;73.72
71109;BME280;59614;51.012;-1.648;2023-02-28T12:09:26;102367.25;;;7.05;73.42
71109;BME280;59614;51.012;-1.648;2023-02-28T12:15:05;102370.81;;;7.07;72.09
71109;BME280;59614;51.012;-1.648;2023-02-28T12:28:34;102377.69;;;6.73;73.48
71109;BME280;59614;51.012;-1.648;2023-02-28T12:31:10;102374.47;;;6.54;74.50
71109;BME280;59614;51.012;-1.648;2023-02-28T12:33:41;102376.63;;;6.68;74.75
71109;BME280;59614;51.012;-1.648;2023-02-28T12:36:15;102370.59;;;6.43;74.79
71109;BME280;59614;51.012;-1.648;2023-02-28T12:38:48;102365.84;;;6.58;74.49
71109;BME280;59614;51.012;-1.648;2023-02-28T12:41:18;102350.78;;;6.51;74.87
71109;BME280;59614;51.012;-1.648;2023-02-28T12:43:52;102353.56;;;6.57;75.24
71109;BME280;59614;51.012;-1.648;2023-02-28T12:46:25;102348.56;;;6.65;75.04
71109;BME280;59614;51.012;-1.648;2023-02-28T12:48:59;102343.25;;;6.92;74.65
71109;BME280;59614;51.012;-1.648;2023-02-28T12:51:26;102348.41;;;6.89;74.64
71109;BME280;59614;51.012;-1.648;2023-02-28T12:56:56;102346.06;;;6.68;75.70
71109;BME280;59614;51.012;-1.648;2023-02-28T12:59:41;102349.94;;;6.52;76.40
71109;BME280;59614;51.012;-1.648;2023-02-28T13:10:49;102316.00;;;6.58;76.49
71109;BME280;59614;51.012;-1.648;2023-02-28T13:13:23;102317.59;;;6.53;76.26
71109;BME280;59614;51.012;-1.648;2023-02-28T13:18:42;102314.78;;;6.47;77.39
71109;BME280;59614;51.012;-1.648;2023-02-28T13:21:22;102306.81;;;6.73;76.70
71109;BME280;59614;51.012;-1.648;2023-02-28T13:42:57;102217.94;;;7.87;71.93
71109;BME280;59614;51.012;-1.648;2023-02-28T13:45:24;102241.53;;;7.86;71.93
71109;BME280;59614;51.012;-1.648;2023-02-28T13:48:01;102232.28;;;7.65;71.82
71109;BME280;59614;51.012;-1.648;2023-02-28T13:50:37;102233.22;;;7.67;72.81
71109;BME280;59614;51.012;-1.648;2023-02-28T13:55:59;102225.28;;;7.66;72.09
71109;BME280;59614;51.012;-1.648;2023-02-28T14:06:31;102202.38;;;7.25;73.02
71109;BME280;59614;51.012;-1.648;2023-02-28T14:11:38;102202.38;;;7.25;74.05
71109;BME280;59614;51.012;-1.648;2023-02-28T14:14:05;102195.00;;;7.45;73.75
71109;BME280;59614;51.012;-1.648;2023-02-28T14:16:44;102187.59;;;7.29;73.57
71109;BME280;59614;51.012;-1.648;2023-02-28T14:19:24;102198.88;;;7.61;73.47
71109;BME280;59614;51.012;-1.648;2023-02-28T14:27:34;102182.47;;;8.08;71.34
71109;BME280;59614;51.012;-1.648;2023-02-28T14:30:19;102183.81;;;7.91;71.54
71109;BME280;59614;51.012;-1.648;2023-02-28T14:35:40;102182.31;;;7.64;72.23
71109;BME280;59614;51.012;-1.648;2023-02-28T14:38:25;102177.69;;;7.53;72.14
71109;BME280;59614;51.012;-1.648;2023-02-28T14:40:57;102185.84;;;7.66;72.43
71109;BME280;59614;51.012;-1.648;2023-02-28T14:43:26;102178.34;;;7.81;71.80
71109;BME280;59614;51.012;-1.648;2023-02-28T14:45:53;102175.00;;;7.88;72.12
71109;BME280;59614;51.012;-1.648;2023-02-28T14:48:20;102166.03;;;7.80;70.88
71109;BME280;59614;51.012;-1.648;2023-02-28T14:50:51;102162.94;;;7.97;71.32
71109;BME280;59614;51.012;-1.648;2023-02-28T14:53:22;102164.00;;;8.07;70.87
71109;BME280;59614;51.012;-1.648;2023-02-28T14:55:49;102167.38;;;8.01;70.97
71109;BME280;59614;51.012;-1.648;2023-02-28T14:58:29;102160.41;;;8.01;70.78
71109;BME280;59614;51.012;-1.648;2023-02-28T15:00:58;102157.47;;;7.87;70.94
71109;BME280;59614;51.012;-1.648;2023-02-28T15:03:36;102174.78;;;8.17;71.63
71109;BME280;59614;51.012;-1.648;2023-02-28T15:06:05;102172.13;;;7.78;71.63
71109;BME280;59614;51.012;-1.648;2023-02-28T15:08:32;102172.25;;;7.84;71.48
71109;BME280;59614;51.012;-1.648;2023-02-28T15:11:02;102172.78;;;7.69;72.33
71109;BME280;59614;51.012;-1.648;2023-02-28T15:16:25;102169.69;;;7.85;71.88
71109;BME280;59614;51.012;-1.648;2023-02-28T15:18:58;102175.75;;;7.83;72.12
71109;BME280;59614;51.012;-1.648;2023-02-28T15:21:31;102167.47;;;7.66;72.19
71109;BME280;59614;51.012;-1.648;2023-02-28T15:24:13;102157.75;;;7.62;72.92
71109;BME280;59614;51.012;-1.648;2023-02-28T15:26:44;102173.53;;;7.63;72.61
71109;BME280;59614;51.012;-1.648;2023-02-28T15:29:17;102155.13;;;7.62;72.71